Time;durP1;ratioP1;P1;durP2;ratioP2;P2;SDS_P1;SDS_P2;PMS_P1;PMS_P2;Temp;Humidity;BMP_temperature;BMP_pressure;BME280_temperature;BME280_humidity;BME280_pressure;Samples;Min_cycle;Max_cycle;Signal;HPM_P1;HPM_P2
2022/12/15 00:41:03;;;;;;;10.68;3.05;;;-1.20;99.90;;;;;;5051418;28;20602;-57
2022/12/15 00:43:33;;;;;;;8.40;3.45;;;-1.50;99.90;;;;;;5051429;28;20045;-57
2022/12/15 00:48:44;;;;;;;9.80;2.67;;;-1.20;99.90;;;;;;5051469;28;20429;-57
2022/12/15 00:51:10;;;;;;;14.35;3.45;;;-1.50;99.90;;;;;;5054912;28;20033;-54
2022/12/15 01:21:07;;;;;;;10.10;2.42;;;-1.20;99.90;;;;;;5054732;28;20052;-57
2022/12/15 01:23:33;;;;;;;11.15;2.80;;;-1.50;99.90;;;;;;5054370;28;20045;-58
2022/12/15 01:25:59;;;;;;;10.90;2.28;;;-1.20;99.90;;;;;;5054598;28;20041;-57
2022/12/15 01:28:26;;;;;;;11.15;2.92;;;-1.30;99.90;;;;;;5054343;28;20044;-57
2022/12/15 01:30:52;;;;;;;7.28;2.97;;;-1.40;99.90;;;;;;5054086;28;20041;-56
2022/12/15 01:33:19;;;;;;;8.85;3.30;;;-1.30;99.90;;;;;;5054110;28;20048;-57
2022/12/15 01:35:57;;;;;;;11.00;3.05;;;-1.20;99.90;;;;;;5054164;28;20037;-56
2022/12/15 01:38:23;;;;;;;8.30;3.13;;;-1.30;99.90;;;;;;5054178;28;20040;-57
2022/12/15 01:41:09;;;;;;;12.23;3.38;;;-1.30;99.90;;;;;;5054272;28;20037;-56
2022/12/15 01:43:37;;;;;;;8.50;3.75;;;-1.40;99.90;;;;;;5035767;28;20049;-53
2022/12/15 01:46:14;;;;;;;10.70;3.65;;;-1.50;99.90;;;;;;5054007;28;20041;-57
2022/12/15 01:48:45;;;;;;;9.23;3.65;;;-1.60;99.90;;;;;;5054251;28;20041;-53
2022/12/15 01:51:26;;;;;;;9.70;3.67;;;-1.60;99.90;;;;;;5053820;28;20037;-56
2022/12/15 01:54:15;;;;;;;10.38;4.07;;;-1.60;99.90;;;;;;5054077;28;20052;-57
2022/12/15 01:56:48;;;;;;;10.75;4.03;;;-1.60;99.90;;;;;;5039835;28;20041;-56
2022/12/15 01:59:19;;;;;;;10.05;4.00;;;-1.60;99.90;;;;;;5016011;28;20046;-57
2022/12/15 02:01:44;;;;;;;13.27;3.53;;;-1.50;99.90;;;;;;5015141;28;20053;-57
2022/12/15 02:04:11;;;;;;;11.35;3.63;;;-1.80;99.90;;;;;;5033582;28;20041;-57
2022/12/15 02:06:36;;;;;;;10.85;3.88;;;-1.70;99.90;;;;;;5033950;28;20037;-56
2022/12/15 02:09:03;;;;;;;9.07;3.80;;;-1.60;99.90;;;;;;5033715;28;20044;-54
2022/12/15 02:11:56;;;;;;;8.95;3.35;;;-1.70;99.90;;;;;;5033547;28;20041;-57
2022/12/15 02:14:46;;;;;;;9.02;3.00;;;-1.80;99.90;;;;;;5033657;28;20042;-53
2022/12/15 02:17:19;;;;;;;9.07;3.33;;;-1.60;99.90;;;;;;5033723;28;20401;-56
2022/12/15 02:20:04;;;;;;;7.68;3.70;;;-1.70;99.90;;;;;;5033632;28;20049;-56
2022/12/15 02:22:32;;;;;;;7.93;3.45;;;-1.70;99.90;;;;;;5033196;28;20464;-56
2022/12/15 02:25:13;;;;;;;11.75;3.72;;;-1.80;99.90;;;;;;5015400;28;20229;-55
2022/12/15 02:27:44;;;;;;;7.57;3.08;;;-1.80;99.90;;;;;;5033383;28;20124;-56
2022/12/15 02:30:22;;;;;;;9.35;3.08;;;-1.90;99.90;;;;;;5033507;28;20041;-57
2022/12/15 02:33:20;;;;;;;9.20;3.00;;;-1.90;99.90;;;;;;5033130;28;20482;-57
2022/12/15 02:35:58;;;;;;;8.93;2.78;;;-1.60;99.90;;;;;;5032693;28;20386;-57
2022/12/15 02:38:30;;;;;;;7.53;2.97;;;-1.60;99.90;;;;;;5033042;28;20092;-57
2022/12/15 02:40:57;;;;;;;9.30;2.85;;;-1.90;99.90;;;;;;5033384;28;20518;-57
2022/12/15 02:43:23;;;;;;;9.80;3.05;;;-1.60;99.90;;;;;;5032953;28;20041;-57
2022/12/15 02:46:03;;;;;;;8.95;2.47;;;-1.80;99.90;;;;;;5032716;28;20057;-56
2022/12/15 02:48:51;;;;;;;10.35;3.20;;;-1.70;99.90;;;;;;5032701;28;20074;-57
2022/12/15 02:51:39;;;;;;;9.80;2.47;;;-1.70;99.90;;;;;;5032903;28;20080;-57
2022/12/15 02:54:29;;;;;;;7.00;1.95;;;-1.70;99.90;;;;;;5032527;28;20041;-56
2022/12/15 02:57:19;;;;;;;5.72;2.42;;;-1.80;99.90;;;;;;5048046;28;20084;-57
2022/12/15 02:59:54;;;;;;;8.27;2.00;;;-1.90;99.90;;;;;;5034830;28;20374;-57
2022/12/15 03:02:22;;;;;;;6.50;2.55;;;-1.80;99.90;;;;;;5052098;28;20396;-58
2022/12/15 03:04:48;;;;;;;9.38;2.38;;;-1.90;99.90;;;;;;5052050;28;20517;-58
2022/12/15 03:07:13;;;;;;;6.55;2.60;;;-1.70;99.90;;;;;;5052182;28;20033;-58
2022/12/15 03:09:39;;;;;;;7.47;1.92;;;-1.90;99.90;;;;;;5052436;28;20094;-56
2022/12/15 03:12:05;;;;;;;8.00;1.95;;;-1.70;99.90;;;;;;5051918;28;20115;-53
2022/12/15 03:14:31;;;;;;;5.53;1.80;;;-1.70;99.90;;;;;;5052396;28;20504;-52
2022/12/15 03:16:57;;;;;;;6.82;1.92;;;-1.90;99.90;;;;;;5052101;28;20037;-53
2022/12/15 03:19:22;;;;;;;8.77;2.17;;;-1.90;99.90;;;;;;5052449;28;20194;-54
2022/12/15 03:21:48;;;;;;;4.20;1.30;;;-1.90;99.90;;;;;;5052278;28;20056;-57
2022/12/15 03:24:14;;;;;;;4.75;1.73;;;-1.80;99.90;;;;;;5052269;28;20045;-55
2022/12/15 03:26:39;;;;;;;12.40;2.42;;;-1.90;99.90;;;;;;5052450;28;20493;-54
2022/12/15 03:29:05;;;;;;;7.10;1.90;;;-1.70;99.90;;;;;;5052233;28;20112;-56
2022/12/15 03:31:31;;;;;;;6.30;1.50;;;-1.80;99.90;;;;;;5052144;28;20037;-54
2022/12/15 03:33:56;;;;;;;8.18;1.70;;;-1.60;99.90;;;;;;5052219;28;20049;-53
2022/12/15 03:36:22;;;;;;;7.90;1.90;;;-1.70;99.90;;;;;;5052305;28;20044;-57
2022/12/15 03:38:48;;;;;;;4.18;1.50;;;-1.80;99.90;;;;;;5051986;28;20055;-57
2022/12/15 03:41:14;;;;;;;7.85;1.98;;;-1.90;99.90;;;;;;5052287;28;20047;-57
2022/12/15 03:43:40;;;;;;;5.70;1.77;;;-1.90;99.90;;;;;;5051787;28;20045;-54
2022/12/15 03:46:05;;;;;;;6.15;1.20;;;-1.90;99.90;;;;;;5051883;28;20420;-55
2022/12/15 03:48:31;;;;;;;5.38;1.50;;;-1.80;99.90;;;;;;5033987;28;20045;-57
2022/12/15 03:50:58;;;;;;;10.82;1.42;;;-1.80;99.90;;;;;;5034098;28;20045;-55
2022/12/15 03:53:23;;;;;;;5.03;1.45;;;-1.90;99.90;;;;;;5051723;28;20053;-56
2022/12/15 03:55:49;;;;;;;5.63;1.38;;;-1.70;99.90;;;;;;5045052;28;20041;-57
2022/12/15 03:58:15;;;;;;;6.63;1.30;;;-1.80;99.90;;;;;;5032276;28;20068;-57
2022/12/15 04:00:40;;;;;;;5.05;1.83;;;-2.00;99.90;;;;;;5032028;28;20091;-57
2022/12/15 04:03:06;;;;;;;5.45;1.52;;;-1.80;99.90;;;;;;5031824;28;20052;-57
2022/12/15 04:05:33;;;;;;;6.63;1.67;;;-1.80;99.90;;;;;;5031832;28;20044;-56
2022/12/15 04:08:00;;;;;;;3.83;1.52;;;-2.00;99.90;;;;;;5032084;28;20041;-57
2022/12/15 04:10:29;;;;;;;6.07;1.30;;;-2.10;99.90;;;;;;5031734;28;20478;-57
2022/12/15 04:13:10;;;;;;;5.47;1.30;;;-1.80;99.90;;;;;;5014116;28;20092;-57
2022/12/15 04:15:37;;;;;;;7.03;1.40;;;-1.90;99.90;;;;;;5014182;28;20056;-56
2022/12/15 04:18:05;;;;;;;6.43;1.50;;;-2.00;99.90;;;;;;5032000;28;20037;-55
2022/12/15 04:20:32;;;;;;;10.18;1.83;;;-2.20;99.90;;;;;;5031706;28;20496;-57
2022/12/15 04:22:58;;;;;;;8.60;1.60;;;-2.10;99.90;;;;;;5031777;28;20052;-57
2022/12/15 05:31:54;;;;;;;6.28;2.25;;;-1.70;99.90;;;;;;5054385;28;20048;-57
2022/12/15 05:34:25;;;;;;;8.02;2.63;;;-1.70;99.90;;;;;;5036672;28;20052;-57
2022/12/15 05:36:51;;;;;;;9.77;3.05;;;-1.90;99.90;;;;;;5054323;28;20391;-57
2022/12/15 05:39:17;;;;;;;10.18;2.50;;;-1.70;99.90;;;;;;5054479;28;20067;-57
2022/12/15 05:41:43;;;;;;;12.45;3.30;;;-2.00;99.90;;;;;;5054120;28;20041;-57
2022/12/15 05:44:09;;;;;;;8.55;2.83;;;-1.90;99.90;;;;;;5053944;28;20053;-57
2022/12/15 05:46:35;;;;;;;9.23;2.80;;;-1.70;99.90;;;;;;5054004;28;20041;-57
2022/12/15 05:49:10;;;;;;;7.15;2.60;;;-2.00;99.90;;;;;;5036239;28;20063;-56
2022/12/15 05:51:40;;;;;;;10.23;3.17;;;-1.70;99.90;;;;;;5053883;28;20116;-58
2022/12/15 05:54:10;;;;;;;7.47;2.58;;;-1.80;99.90;;;;;;5036280;28;20140;-57
2022/12/15 05:56:36;;;;;;;10.98;2.97;;;-1.90;99.90;;;;;;5040637;28;20095;-57
2022/12/15 05:59:02;;;;;;;9.57;4.32;;;-1.90;99.90;;;;;;5033879;28;20042;-58
2022/12/15 06:01:29;;;;;;;10.70;4.68;;;-1.60;99.90;;;;;;5033670;28;20048;-57
2022/12/15 06:03:55;;;;;;;9.30;3.00;;;-1.90;99.90;;;;;;5033716;28;20136;-57
2022/12/15 06:06:21;;;;;;;7.25;3.25;;;-1.70;99.90;;;;;;5033835;28;20120;-57
2022/12/15 06:08:46;;;;;;;9.98;3.22;;;-1.70;99.90;;;;;;5016246;28;20049;-58
2022/12/15 06:11:14;;;;;;;10.85;3.25;;;-1.50;99.90;;;;;;5033766;28;20034;-57
2022/12/15 06:13:40;;;;;;;9.05;3.15;;;-1.50;99.90;;;;;;5033824;28;20179;-58
2022/12/15 06:16:10;;;;;;;9.60;3.95;;;-1.60;99.90;;;;;;5033413;28;20638;-58
2022/12/15 06:18:38;;;;;;;8.93;3.05;;;-1.60;99.90;;;;;;5033759;28;20037;-56
2022/12/15 06:21:16;;;;;;;8.25;2.58;;;-1.60;99.90;;;;;;5033476;28;20812;-55
2022/12/15 06:23:43;;;;;;;8.25;3.30;;;-1.60;99.90;;;;;;5033066;28;20056;-54
2022/12/15 06:26:20;;;;;;;10.43;2.90;;;-1.40;99.90;;;;;;5015440;28;20084;-55
2022/12/15 06:28:47;;;;;;;8.68;3.30;;;-1.30;99.90;;;;;;5032924;28;20049;-57
2022/12/15 06:31:14;;;;;;;10.38;2.72;;;-1.40;99.90;;;;;;5033144;28;20048;-55
2022/12/15 06:33:40;;;;;;;8.27;2.83;;;-1.40;99.90;;;;;;5033188;28;20076;-58
2022/12/15 06:36:09;;;;;;;6.50;2.90;;;-1.30;99.90;;;;;;5033122;28;20045;-55
2022/12/15 06:38:35;;;;;;;10.68;3.22;;;-1.50;99.90;;;;;;5033128;28;20394;-57
2022/12/15 06:41:03;;;;;;;10.63;3.45;;;-1.30;99.90;;;;;;5015268;28;20045;-57
2022/12/15 06:43:29;;;;;;;13.20;3.72;;;-1.50;99.90;;;;;;5032879;28;20156;-57
2022/12/15 06:45:55;;;;;;;12.45;3.38;;;-1.40;99.90;;;;;;5032637;28;20050;-55
2022/12/15 06:48:22;;;;;;;5.70;2.40;;;-1.60;99.90;;;;;;5032473;28;20045;-58
2022/12/15 06:50:49;;;;;;;8.90;3.10;;;-1.30;99.90;;;;;;5032611;28;20037;-57
2022/12/15 06:53:17;;;;;;;7.25;2.60;;;-1.30;99.90;;;;;;5032407;28;20382;-58
2022/12/15 06:55:43;;;;;;;9.70;3.47;;;-1.30;99.90;;;;;;5038598;28;20136;-58
2022/12/15 06:58:11;;;;;;;9.52;3.60;;;-1.50;99.90;;;;;;5051874;28;20090;-57
2022/12/15 07:00:37;;;;;;;8.57;2.88;;;-1.20;99.90;;;;;;5051994;28;20095;-57
2022/12/15 07:03:05;;;;;;;7.40;2.75;;;-1.20;99.90;;;;;;5034326;28;20045;-57
2022/12/15 07:05:31;;;;;;;7.78;2.85;;;-1.40;99.90;;;;;;5052481;28;20435;-58
2022/12/15 07:07:56;;;;;;;11.02;3.15;;;-1.50;99.90;;;;;;5052364;28;20072;-59
2022/12/15 07:10:22;;;;;;;9.93;3.55;;;-1.50;99.90;;;;;;5052202;28;20043;-58
2022/12/15 07:12:47;;;;;;;13.02;3.60;;;-1.30;99.90;;;;;;5052192;28;20040;-57
2022/12/15 07:15:13;;;;;;;11.77;4.38;;;-1.30;99.90;;;;;;5052314;28;20076;-57
2022/12/15 07:17:39;;;;;;;10.75;5.00;;;-1.20;99.90;;;;;;5052264;28;20424;-58
2022/12/15 07:20:06;;;;;;;12.48;4.78;;;-1.20;99.90;;;;;;5052277;28;20037;-56
2022/12/15 07:22:31;;;;;;;13.32;5.18;;;-1.20;99.90;;;;;;5052022;28;20508;-57
2022/12/15 07:24:57;;;;;;;12.68;5.15;;;-1.40;99.90;;;;;;5052157;28;20037;-61
2022/12/15 07:27:23;;;;;;;13.15;5.68;;;-1.10;99.90;;;;;;5052147;28;20072;-57
2022/12/15 07:29:48;;;;;;;12.52;5.50;;;-1.10;99.90;;;;;;5052025;28;20088;-57
2022/12/15 07:32:14;;;;;;;13.55;5.80;;;-1.10;99.90;;;;;;5051409;28;20469;-56
2022/12/15 07:34:40;;;;;;;13.10;5.68;;;-1.40;99.90;;;;;;5051311;28;20048;-57
2022/12/15 07:37:06;;;;;;;14.00;5.57;;;-1.20;99.90;;;;;;5051392;28;20056;-57
2022/12/15 07:39:32;;;;;;;13.10;5.53;;;-1.00;99.90;;;;;;5033496;28;20394;-58
2022/12/15 07:41:58;;;;;;;12.95;5.82;;;-1.00;99.90;;;;;;5051500;28;20221;-57
2022/12/15 07:44:23;;;;;;;13.27;5.47;;;-1.10;99.90;;;;;;5050618;28;20049;-57
2022/12/15 07:46:49;;;;;;;13.43;5.15;;;-1.20;99.90;;;;;;5051176;28;20426;-57
2022/12/15 07:49:16;;;;;;;15.50;6.13;;;-1.20;99.90;;;;;;5033436;28;20475;-58
2022/12/15 07:51:42;;;;;;;12.52;6.57;;;-1.20;99.90;;;;;;5033245;28;20053;-56
2022/12/15 07:54:11;;;;;;;13.32;6.07;;;-1.00;99.90;;;;;;5051321;28;20047;-57
2022/12/15 07:56:38;;;;;;;12.43;5.53;;;-1.10;99.90;;;;;;5039714;28;20133;-56
2022/12/15 07:59:05;;;;;;;13.95;5.95;;;-1.30;99.90;;;;;;5041550;28;20051;-56
2022/12/15 08:01:31;;;;;;;15.85;5.95;;;-1.20;99.90;;;;;;5008072;28;20056;-54
2022/12/15 08:03:57;;;;;;;14.45;5.97;;;-1.20;99.90;;;;;;5035158;28;20124;-58
2022/12/15 08:06:23;;;;;;;9.90;5.28;;;-1.00;99.90;;;;;;5035260;28;20160;-56
2022/12/15 08:08:49;;;;;;;15.65;5.75;;;-1.20;99.90;;;;;;5017514;28;20074;-56
2022/12/15 08:11:15;;;;;;;17.67;6.60;;;-1.20;99.90;;;;;;5017254;28;20049;-56
2022/12/15 08:13:42;;;;;;;14.18;6.40;;;-1.00;99.90;;;;;;5035027;28;20452;-58
2022/12/15 08:16:08;;;;;;;20.67;6.55;;;-1.00;99.90;;;;;;5035038;28;20118;-55
2022/12/15 08:18:34;;;;;;;15.50;6.47;;;-1.20;99.90;;;;;;5034945;28;20045;-57
2022/12/15 08:21:07;;;;;;;17.48;6.00;;;-1.10;99.90;;;;;;5034873;28;20034;-56
2022/12/15 08:23:34;;;;;;;15.55;5.90;;;-1.00;99.90;;;;;;5016961;28;20567;-57
2022/12/15 08:26:06;;;;;;;11.00;5.68;;;-1.30;99.90;;;;;;5034702;28;20037;-57
2022/12/15 08:28:33;;;;;;;13.68;6.38;;;-1.00;99.90;;;;;;5034764;28;20084;-56
2022/12/15 08:31:11;;;;;;;17.42;6.95;;;-1.00;99.90;;;;;;5034643;28;20042;-58
2022/12/15 08:33:37;;;;;;;11.90;5.78;;;-1.10;99.90;;;;;;5034154;28;20050;-57
2022/12/15 08:36:06;;;;;;;11.77;6.20;;;-0.80;99.90;;;;;;5016752;28;20049;-58
2022/12/15 08:38:32;;;;;;;15.70;6.38;;;-0.90;99.90;;;;;;5034825;28;20385;-56
2022/12/15 08:41:19;;;;;;;14.23;6.32;;;-0.90;99.90;;;;;;5034495;28;20124;-58
2022/12/15 08:43:46;;;;;;;19.52;7.03;;;-1.00;99.90;;;;;;5034254;28;20386;-57
2022/12/15 08:46:12;;;;;;;11.95;6.88;;;-0.70;99.90;;;;;;5034625;28;20049;-58
2022/12/15 08:48:38;;;;;;;11.15;5.75;;;-0.70;99.90;;;;;;5016480;28;20041;-57
2022/12/15 08:51:05;;;;;;;12.32;6.47;;;-0.90;99.90;;;;;;5016214;28;20509;-57
2022/12/15 08:53:31;;;;;;;15.98;6.70;;;-0.80;99.90;;;;;;5016081;28;20060;-58
2022/12/15 08:56:17;;;;;;;15.88;7.05;;;-0.90;99.90;;;;;;5041839;28;20036;-59
2022/12/15 08:58:43;;;;;;;18.98;7.30;;;-0.70;99.90;;;;;;5054030;28;20055;-55
2022/12/15 09:01:19;;;;;;;14.88;7.03;;;-0.60;99.90;;;;;;5054094;28;20182;-57
2022/12/15 09:03:46;;;;;;;16.98;6.10;;;-0.90;99.90;;;;;;5036391;28;20137;-56
2022/12/15 09:06:23;;;;;;;14.15;5.97;;;-0.70;99.90;;;;;;5054024;28;20094;-54
2022/12/15 09:08:49;;;;;;;12.75;6.13;;;-0.80;99.90;;;;;;5053865;28;20820;-58
2022/12/15 09:11:14;;;;;;;15.02;6.60;;;-0.70;99.90;;;;;;5052201;28;20179;-56
2022/12/15 09:13:40;;;;;;;11.40;5.57;;;-0.70;99.90;;;;;;5035705;28;20048;-56
2022/12/15 09:16:12;;;;;;;15.90;6.55;;;-0.40;99.90;;;;;;5054077;28;20105;-55
2022/12/15 09:18:40;;;;;;;13.38;6.13;;;-0.30;99.90;;;;;;5053819;28;20067;-56
2022/12/15 09:21:07;;;;;;;18.38;7.80;;;-0.20;99.90;;;;;;5036267;28;20037;-54
2022/12/15 09:23:33;;;;;;;16.20;7.82;;;-0.20;99.90;;;;;;5035833;28;20075;-46
2022/12/15 09:26:13;;;;;;;15.00;7.28;;;-0.10;99.90;;;;;;5035912;28;20060;-45
2022/12/15 09:28:40;;;;;;;15.45;7.65;;;-0.10;99.90;;;;;;5053722;28;20040;-46
2022/12/15 09:31:11;;;;;;;16.00;6.95;;;-0.30;99.90;;;;;;5035256;28;20045;-47
2022/12/15 09:33:38;;;;;;;15.65;6.57;;;-0.30;99.90;;;;;;5029736;28;20116;-46
2022/12/15 09:36:05;;;;;;;13.30;7.18;;;-0.20;99.90;;;;;;5035905;28;20540;-45
2022/12/15 09:38:33;;;;;;;16.40;6.65;;;0.00;99.90;;;;;;5033148;28;20041;-47
2022/12/15 09:41:11;;;;;;;16.08;7.15;;;-0.20;99.90;;;;;;5033032;28;20056;-45
2022/12/15 09:43:50;;;;;;;19.80;6.97;;;0.20;99.90;;;;;;5015489;28;20037;-45
2022/12/15 09:46:34;;;;;;;13.55;6.80;;;0.10;99.90;;;;;;5033535;28;20047;-47
2022/12/15 09:49:09;;;;;;;17.15;7.28;;;0.00;99.90;;;;;;5033151;28;20045;-47
2022/12/15 09:51:52;;;;;;;13.23;6.60;;;0.20;99.90;;;;;;5033343;28;20041;-47
2022/12/15 09:54:20;;;;;;;18.30;6.85;;;0.10;99.90;;;;;;5033183;28;20045;-47
2022/12/15 09:56:56;;;;;;;13.45;6.78;;;0.10;99.90;;;;;;5035247;28;20497;-46
2022/12/15 09:59:37;;;;;;;14.05;6.95;;;0.10;99.90;;;;;;5032681;28;20366;-50
2022/12/15 10:02:22;;;;;;;14.35;7.32;;;0.20;99.90;;;;;;5033039;28;20051;-47
2022/12/15 10:04:54;;;;;;;16.60;6.80;;;0.30;99.90;;;;;;5033097;28;20053;-46
2022/12/15 10:07:31;;;;;;;18.15;6.72;;;0.20;99.90;;;;;;5023307;28;20036;-47
2022/12/15 10:09:56;;;;;;;16.48;6.70;;;0.20;99.90;;;;;;5041631;28;20037;-46
2022/12/15 10:12:33;;;;;;;15.02;7.47;;;0.30;99.90;;;;;;5042759;28;20122;-46
2022/12/15 10:15:19;;;;;;;15.35;7.05;;;0.30;99.90;;;;;;5023487;28;20037;-47
2022/12/15 10:17:56;;;;;;;18.42;7.65;;;0.50;99.90;;;;;;5023844;28;20037;-46
2022/12/15 10:20:25;;;;;;;17.98;7.65;;;0.40;99.90;;;;;;5041854;28;20092;-47
2022/12/15 10:22:52;;;;;;;14.20;7.25;;;0.60;99.90;;;;;;5040697;28;20163;-46
2022/12/15 10:25:20;;;;;;;15.80;7.32;;;0.60;99.90;;;;;;5043045;28;20052;-46
2022/12/15 10:27:57;;;;;;;13.30;7.00;;;0.60;99.90;;;;;;5024562;28;20037;-46
2022/12/15 10:30:23;;;;;;;15.88;7.32;;;0.60;99.90;;;;;;5041905;28;20374;-49
2022/12/15 10:33:14;;;;;;;13.15;7.05;;;0.80;99.90;;;;;;5042256;28;20036;-48
2022/12/15 10:35:42;;;;;;;16.85;7.38;;;0.90;99.90;;;;;;5040329;28;20049;-48
2022/12/15 10:38:24;;;;;;;15.55;7.85;;;0.80;99.90;;;;;;5027024;28;20045;-46
2022/12/15 10:40:57;;;;;;;18.42;7.88;;;0.80;99.90;;;;;;5032084;28;20041;-48
2022/12/15 10:43:28;;;;;;;12.52;6.57;;;0.90;99.90;;;;;;5032253;28;20135;-46
2022/12/15 10:46:04;;;;;;;16.88;8.18;;;0.90;99.90;;;;;;5031871;28;20057;-46
2022/12/15 10:48:30;;;;;;;18.55;7.57;;;0.90;99.90;;;;;;5031918;28;20791;-50
2022/12/15 10:51:29;;;;;;;15.88;7.15;;;1.10;99.90;;;;;;5031724;28;20041;-46
2022/12/15 10:54:08;;;;;;;16.20;7.60;;;1.20;99.90;;;;;;5031838;28;20132;-46
2022/12/15 10:56:53;;;;;;;14.55;6.82;;;1.00;99.90;;;;;;5045009;28;20048;-45
2022/12/15 10:59:27;;;;;;;16.48;6.80;;;1.30;99.90;;;;;;5051896;28;20454;-46
2022/12/15 11:01:53;;;;;;;15.88;6.53;;;1.20;99.90;;;;;;5052039;28;20033;-47
2022/12/15 11:04:37;;;;;;;13.35;6.68;;;1.30;99.90;;;;;;5051769;28;20548;-47
2022/12/15 11:07:03;;;;;;;13.93;6.82;;;1.50;99.90;;;;;;5051810;28;20385;-46
2022/12/15 11:09:35;;;;;;;14.65;6.75;;;1.50;99.90;;;;;;5051823;28;20033;-47
2022/12/15 11:15:22;;;;;;;12.88;6.70;;;1.50;99.90;;;;;;5051830;28;20118;-49
2022/12/15 11:18:01;;;;;;;14.88;6.88;;;1.50;99.90;;;;;;5051615;28;20056;-49
2022/12/15 11:20:34;;;;;;;13.25;6.60;;;1.70;99.90;;;;;;5033774;28;20145;-49
2022/12/15 11:23:15;;;;;;;11.90;6.03;;;1.70;99.90;;;;;;5050619;28;20436;-50
2022/12/15 11:25:50;;;;;;;17.58;6.68;;;1.80;99.90;;;;;;5031821;28;20049;-46
2022/12/15 11:28:21;;;;;;;15.50;6.60;;;1.80;99.90;;;;;;5031379;28;20045;-47
2022/12/15 11:31:06;;;;;;;17.40;6.43;;;1.80;99.90;;;;;;5031436;28;20378;-48
2022/12/15 11:33:32;;;;;;;16.45;6.20;;;1.80;99.90;;;;;;5031174;28;20037;-47
2022/12/15 11:36:12;;;;;;;15.35;5.97;;;1.90;99.90;;;;;;5031407;28;20511;-48
2022/12/15 11:38:53;;;;;;;12.63;5.93;;;2.10;99.90;;;;;;5031596;28;20124;-47
2022/12/15 11:41:51;;;;;;;17.17;6.75;;;2.10;99.90;;;;;;5031288;28;20116;-47
2022/12/15 11:44:27;;;;;;;15.13;6.95;;;2.10;99.90;;;;;;5013298;28;20056;-46
2022/12/15 11:47:21;;;;;;;13.73;5.60;;;2.10;99.90;;;;;;5038139;28;20045;-45
2022/12/15 11:49:52;;;;;;;12.70;6.60;;;2.20;99.90;;;;;;5047260;28;20527;-45
2022/12/15 11:52:44;;;;;;;12.52;5.82;;;2.20;99.90;;;;;;5050982;28;20173;-45
2022/12/15 11:55:37;;;;;;;14.25;5.97;;;2.20;99.90;;;;;;5049544;28;20412;-45
2022/12/15 11:58:20;;;;;;;13.38;5.55;;;2.20;99.90;;;;;;5031289;28;20120;-49
2022/12/15 12:01:11;;;;;;;11.65;4.85;;;2.30;99.90;;;;;;5034922;28;20042;-45
2022/12/15 12:03:53;;;;;;;10.23;4.90;;;2.30;99.90;;;;;;5044619;28;20362;-45
2022/12/15 12:06:31;;;;;;;11.23;4.80;;;2.30;99.90;;;;;;5050970;28;20373;-47
2022/12/15 12:09:12;;;;;;;14.00;5.20;;;2.30;99.90;;;;;;5051170;28;20112;-48
2022/12/15 12:11:55;;;;;;;11.80;4.93;;;2.40;99.90;;;;;;5025847;28;20033;-45
2022/12/15 12:14:20;;;;;;;15.60;5.38;;;2.30;99.90;;;;;;5040876;28;20088;-46
2022/12/15 12:17:07;;;;;;;13.77;4.47;;;2.40;99.90;;;;;;5039737;28;20094;-45
2022/12/15 12:19:44;;;;;;;12.15;4.90;;;2.40;99.90;;;;;;5013404;28;20079;-47
2022/12/15 12:22:41;;;;;;;10.10;4.20;;;2.50;99.90;;;;;;5031180;28;20108;-48
2022/12/15 12:25:16;;;;;;;11.52;4.53;;;2.60;99.90;;;;;;5023188;28;20057;-45
2022/12/15 12:27:59;;;;;;;14.50;4.82;;;2.60;99.90;;;;;;5038931;28;20671;-47
2022/12/15 12:30:32;;;;;;;11.90;5.15;;;2.70;99.90;;;;;;5037503;28;20125;-49
2022/12/15 12:33:13;;;;;;;12.98;5.60;;;2.70;99.90;;;;;;5040311;28;20095;-47
2022/12/15 12:35:57;;;;;;;11.98;4.40;;;2.80;99.90;;;;;;5045962;28;20033;-49
2022/12/15 12:38:47;;;;;;;14.80;5.70;;;2.90;99.90;;;;;;5050364;28;20351;-49
2022/12/15 12:41:17;;;;;;;11.88;5.05;;;2.90;99.90;;;;;;5045578;28;20029;-49
2022/12/15 12:43:51;;;;;;;14.68;5.03;;;2.80;99.90;;;;;;5039433;28;20038;-45
2022/12/15 12:46:24;;;;;;;12.98;4.40;;;2.80;99.90;;;;;;5038514;28;20409;-46
2022/12/15 12:49:12;;;;;;;10.93;4.32;;;2.80;99.90;;;;;;5044577;28;20096;-45
2022/12/15 12:51:50;;;;;;;11.95;4.05;;;2.80;99.90;;;;;;5052676;28;20555;-45
2022/12/15 12:54:34;;;;;;;9.85;4.00;;;2.80;99.90;;;;;;5054255;28;20458;-47
2022/12/15 12:57:10;;;;;;;11.02;3.90;;;2.80;99.90;;;;;;5019581;28;20045;-46
2022/12/15 12:59:40;;;;;;;12.82;4.40;;;2.80;99.90;;;;;;5034520;28;20116;-45
2022/12/15 13:02:23;;;;;;;8.13;3.60;;;2.80;99.90;;;;;;5034081;28;20041;-47
2022/12/15 13:05:28;;;;;;;14.20;4.93;;;2.90;99.90;;;;;;5034290;28;20048;-47
2022/12/15 13:08:03;;;;;;;10.23;3.72;;;2.90;99.90;;;;;;5012938;28;20176;-47
2022/12/15 13:10:30;;;;;;;12.68;3.90;;;2.90;99.90;;;;;;5034031;28;20053;-46
2022/12/15 13:12:58;;;;;;;12.98;3.90;;;2.90;99.90;;;;;;5015852;28;20091;-46
2022/12/15 13:15:27;;;;;;;11.13;4.22;;;3.00;99.90;;;;;;5033881;28;20057;-47
2022/12/15 13:18:12;;;;;;;11.32;4.40;;;2.90;99.90;;;;;;5033798;28;20141;-46
2022/12/15 13:20:39;;;;;;;11.38;3.80;;;2.80;99.90;;;;;;5033958;28;20370;-46
2022/12/15 13:23:23;;;;;;;10.98;3.92;;;2.80;99.90;;;;;;5032499;28;20033;-45
2022/12/15 13:25:51;;;;;;;10.45;4.00;;;2.80;99.90;;;;;;5037454;28;20525;-45
2022/12/15 13:28:17;;;;;;;9.85;4.07;;;2.80;99.90;;;;;;5033389;28;20052;-48
2022/12/15 13:31:10;;;;;;;11.05;3.78;;;2.70;99.90;;;;;;5033876;28;20702;-50
2022/12/15 13:33:50;;;;;;;9.55;3.80;;;2.70;99.90;;;;;;5033643;28;20131;-47
2022/12/15 13:36:40;;;;;;;10.80;3.78;;;2.80;99.90;;;;;;5017948;28;20037;-47
2022/12/15 13:39:11;;;;;;;13.70;4.07;;;2.80;99.90;;;;;;5042257;28;20042;-49
2022/12/15 13:42:00;;;;;;;15.88;4.88;;;2.70;99.90;;;;;;5042576;28;20041;-47
2022/12/15 13:44:46;;;;;;;13.93;4.05;;;2.70;99.90;;;;;;5014469;28;20053;-47
2022/12/15 13:47:17;;;;;;;11.40;3.60;;;2.70;99.90;;;;;;5043010;28;20042;-47
2022/12/15 13:50:05;;;;;;;11.10;3.80;;;2.70;99.90;;;;;;5024396;28;20068;-46
2022/12/15 13:52:42;;;;;;;10.90;4.43;;;2.60;99.90;;;;;;5028476;28;20054;-45
2022/12/15 13:55:18;;;;;;;9.35;3.92;;;2.70;99.90;;;;;;5034040;28;20561;-46
2022/12/15 13:57:58;;;;;;;11.07;3.92;;;2.60;99.90;;;;;;5052668;28;20523;-48
2022/12/15 14:00:24;;;;;;;13.40;4.63;;;2.60;99.90;;;;;;5052994;28;20505;-44
2022/12/15 14:02:50;;;;;;;13.52;4.05;;;2.60;99.90;;;;;;5052929;28;20080;-46
2022/12/15 14:05:20;;;;;;;10.98;4.13;;;2.60;99.90;;;;;;5053095;28;20037;-48
2022/12/15 14:08:12;;;;;;;15.02;4.68;;;2.50;99.90;;;;;;5052918;28;20382;-48
2022/12/15 14:10:50;;;;;;;13.35;4.18;;;2.60;99.90;;;;;;5035151;28;20105;-45
2022/12/15 14:13:21;;;;;;;11.40;4.07;;;2.50;99.90;;;;;;5052949;28;20452;-46
2022/12/15 14:16:03;;;;;;;15.43;4.17;;;2.50;99.90;;;;;;5035304;28;20068;-44
2022/12/15 14:18:37;;;;;;;12.02;4.10;;;2.50;99.90;;;;;;5052790;28;20136;-45
2022/12/15 14:21:21;;;;;;;13.02;4.03;;;2.50;99.90;;;;;;5052867;28;20116;-46
2022/12/15 14:23:48;;;;;;;13.02;3.60;;;2.50;99.90;;;;;;5052210;28;20041;-45
2022/12/15 14:26:15;;;;;;;15.10;4.57;;;2.50;99.90;;;;;;5052077;28;20132;-47
2022/12/15 14:28:44;;;;;;;14.45;4.63;;;2.60;99.90;;;;;;5052079;28;20424;-48
2022/12/15 14:31:18;;;;;;;9.73;3.55;;;2.50;99.90;;;;;;5052265;28;20051;-47
2022/12/15 14:33:47;;;;;;;11.48;4.03;;;2.60;99.90;;;;;;5041299;28;20493;-46
2022/12/15 14:36:15;;;;;;;10.85;3.90;;;2.60;99.90;;;;;;5042554;28;20029;-48
2022/12/15 14:39:00;;;;;;;14.40;4.78;;;2.60;99.90;;;;;;5041870;28;20053;-44
2022/12/15 14:41:32;;;;;;;13.07;3.88;;;2.50;99.90;;;;;;5022583;28;20252;-46
2022/12/15 14:44:03;;;;;;;;;;;2.60;99.90;;;;;;5031279;28;20052;-44
2022/12/15 14:46:29;;;;;;;9.88;3.72;;;2.50;99.90;;;;;;5012955;28;20250;-47
2022/12/15 14:49:01;;;;;;;7.00;3.42;;;2.60;99.90;;;;;;5013353;28;20107;-44
2022/12/15 14:51:30;;;;;;;14.80;4.60;;;2.50;99.90;;;;;;5013112;28;20038;-44
2022/12/15 14:53:56;;;;;;;11.00;4.28;;;2.50;99.90;;;;;;5013196;28;20139;-45
2022/12/15 14:56:29;;;;;;;17.08;5.20;;;2.40;99.90;;;;;;5024550;28;20085;-44
2022/12/15 14:59:18;;;;;;;11.55;4.47;;;2.30;99.90;;;;;;5032998;28;20723;-47
2022/12/15 15:02:06;;;;;;;13.70;6.22;;;2.30;99.90;;;;;;5033019;28;20072;-45
2022/12/15 15:04:32;;;;;;;11.25;5.00;;;2.20;99.90;;;;;;5025512;28;20382;-47
2022/12/15 15:07:01;;;;;;;10.68;4.90;;;2.20;99.90;;;;;;5032981;28;20192;-46
2022/12/15 15:09:45;;;;;;;13.10;5.00;;;2.00;99.90;;;;;;5030826;28;20115;-45
2022/12/15 15:12:20;;;;;;;12.23;5.38;;;2.00;99.90;;;;;;5032304;28;20124;-50
2022/12/15 15:14:50;;;;;;;9.57;5.28;;;2.10;99.90;;;;;;5032662;28;20094;-46
2022/12/15 15:17:27;;;;;;;12.70;5.57;;;2.00;99.90;;;;;;5032442;28;20490;-45
2022/12/15 15:20:02;;;;;;;10.32;5.10;;;1.90;99.90;;;;;;5032413;28;20052;-45
2022/12/15 15:22:39;;;;;;;12.68;5.70;;;1.90;99.90;;;;;;5032412;28;20048;-49
2022/12/15 15:25:24;;;;;;;12.55;5.78;;;1.60;99.90;;;;;;5031182;28;20061;-49
2022/12/15 15:27:49;;;;;;;14.43;7.60;;;1.80;99.90;;;;;;5032504;28;20046;-48
2022/12/15 15:30:21;;;;;;;14.15;6.88;;;1.70;99.90;;;;;;5047364;28;20160;-46
2022/12/15 15:33:07;;;;;;;20.58;9.48;;;1.70;99.90;;;;;;5031184;28;20056;-47